Time;durP1;ratioP1;P1;durP2;ratioP2;P2;SDS_P1;SDS_P2;PMS_P1;PMS_P2;Temp;Humidity;BMP_temperature;BMP_pressure;BME280_temperature;BME280_humidity;BME280_pressure;Samples;Min_cycle;Max_cycle;Signal;HPM_P1;HPM_P2
2023/07/11 00:01:10;;;;;;;7.83;3.90;;;;;;;;;;5136719;27;20424;-65
2023/07/11 00:03:37;;;;;;;7.17;4.23;;;;;;;;;;5136332;27;20910;-63
2023/07/11 00:06:05;;;;;;;6.90;3.60;;;;;;;;;;5135722;27;20452;-63
2023/07/11 00:08:33;;;;;;;4.97;3.40;;;;;;;;;;5135941;27;20434;-64
2023/07/11 00:11:01;;;;;;;5.33;3.83;;;;;;;;;;5136126;27;20523;-64
2023/07/11 00:13:28;;;;;;;10.30;4.10;;;;;;;;;;5135297;27;21020;-64
2023/07/11 00:15:56;;;;;;;6.80;3.70;;;;;;;;;;5136046;27;20449;-64
2023/07/11 00:18:23;;;;;;;6.17;4.53;;;;;;;;;;5135428;27;20444;-64
2023/07/11 00:20:51;;;;;;;5.63;3.80;;;;;;;;;;5135488;27;20530;-64
2023/07/11 00:23:18;;;;;;;8.27;3.87;;;;;;;;;;5135136;27;20440;-64
2023/07/11 00:25:45;;;;;;;6.50;3.73;;;;;;;;;;5135695;27;20537;-63
2023/07/11 00:28:14;;;;;;;6.67;3.70;;;;;;;;;;5135716;27;20475;-63
2023/07/11 00:30:41;;;;;;;6.60;4.20;;;;;;;;;;5135478;27;20473;-63
2023/07/11 00:33:09;;;;;;;6.20;3.90;;;;;;;;;;5135521;27;20433;-63
2023/07/11 00:35:37;;;;;;;8.47;3.47;;;;;;;;;;5135425;27;20475;-63
2023/07/11 00:38:05;;;;;;;4.77;3.60;;;;;;;;;;5135414;27;20442;-63
2023/07/11 00:40:32;;;;;;;9.23;3.40;;;;;;;;;;5135366;27;20529;-63
2023/07/11 00:43:00;;;;;;;6.67;4.13;;;;;;;;;;5135595;27;20462;-63
2023/07/11 00:45:42;;;;;;;8.47;3.80;;;;;;;;;;5135257;27;20833;-63
2023/07/11 00:48:11;;;;;;;7.07;4.33;;;;;;;;;;5135086;27;20452;-63
2023/07/11 00:50:38;;;;;;;8.60;4.70;;;;;;;;;;5134808;27;20443;-63
2023/07/11 00:53:06;;;;;;;9.77;4.63;;;;;;;;;;5135203;27;20448;-63
2023/07/11 00:55:33;;;;;;;6.23;3.43;;;;;;;;;;5134637;27;20479;-63
2023/07/11 00:58:00;;;;;;;11.20;4.03;;;;;;;;;;5135295;27;20436;-63
2023/07/11 01:00:28;;;;;;;5.57;4.40;;;;;;;;;;5134717;27;20476;-64
2023/07/11 01:02:55;;;;;;;7.03;3.80;;;;;;;;;;5134956;27;20462;-63
2023/07/11 01:05:24;;;;;;;7.07;4.03;;;;;;;;;;5135108;27;20443;-63
2023/07/11 01:07:51;;;;;;;10.57;4.20;;;;;;;;;;5135178;27;20570;-65
2023/07/11 01:10:18;;;;;;;6.70;3.93;;;;;;;;;;5134502;27;20444;-63
2023/07/11 01:12:46;;;;;;;7.93;4.07;;;;;;;;;;5135583;27;20530;-63
2023/07/11 01:15:13;;;;;;;4.63;4.07;;;;;;;;;;5134713;27;20475;-63
2023/07/11 01:17:40;;;;;;;5.40;4.07;;;;;;;;;;5135209;27;20438;-63
2023/07/11 01:20:09;;;;;;;7.10;4.10;;;;;;;;;;5134650;27;20951;-63
2023/07/11 01:22:38;;;;;;;5.33;3.33;;;;;;;;;;5134671;27;20433;-63
2023/07/11 01:25:09;;;;;;;7.13;4.17;;;;;;;;;;5134244;27;20456;-63
2023/07/11 01:27:36;;;;;;;9.60;4.47;;;;;;;;;;5134672;27;20420;-63
2023/07/11 01:30:05;;;;;;;8.40;3.87;;;;;;;;;;5135163;27;20445;-63
2023/07/11 01:32:32;;;;;;;12.23;4.23;;;;;;;;;;5134011;27;20440;-63
2023/07/11 01:34:59;;;;;;;7.87;4.87;;;;;;;;;;5133978;27;20482;-63
2023/07/11 01:37:27;;;;;;;4.50;3.80;;;;;;;;;;5134246;27;20444;-63
2023/07/11 01:39:55;;;;;;;8.83;5.20;;;;;;;;;;5134396;27;20530;-63
2023/07/11 01:42:22;;;;;;;7.83;4.97;;;;;;;;;;5134776;27;20767;-63
2023/07/11 01:44:50;;;;;;;5.13;3.90;;;;;;;;;;5134344;27;20444;-63
2023/07/11 01:47:17;;;;;;;7.97;4.50;;;;;;;;;;5134410;27;20441;-63
2023/07/11 01:49:44;;;;;;;5.70;3.90;;;;;;;;;;5134004;27;20483;-63
2023/07/11 01:52:15;;;;;;;5.40;4.73;;;;;;;;;;5134345;27;20435;-63
2023/07/11 01:54:42;;;;;;;4.87;4.37;;;;;;;;;;5133910;27;20470;-63
2023/07/11 01:57:10;;;;;;;8.03;4.30;;;;;;;;;;5134569;27;20441;-63
2023/07/11 01:59:38;;;;;;;6.70;4.50;;;;;;;;;;5134046;27;20470;-64
2023/07/11 02:02:06;;;;;;;5.47;4.20;;;;;;;;;;5134758;27;20745;-63
2023/07/11 02:04:33;;;;;;;8.30;4.60;;;;;;;;;;5133862;27;20447;-63
2023/07/11 02:07:00;;;;;;;6.17;4.30;;;;;;;;;;5133871;27;20451;-63
2023/07/11 02:09:28;;;;;;;6.60;4.63;;;;;;;;;;5134200;27;20444;-63
2023/07/11 02:11:55;;;;;;;5.70;4.67;;;;;;;;;;5134140;27;20444;-63
2023/07/11 02:14:23;;;;;;;5.47;4.70;;;;;;;;;;5133849;27;21075;-63
2023/07/11 02:16:52;;;;;;;6.37;4.20;;;;;;;;;;5134077;27;20547;-63
2023/07/11 02:19:21;;;;;;;6.33;4.80;;;;;;;;;;5134382;27;20446;-63
2023/07/11 02:21:48;;;;;;;7.60;5.00;;;;;;;;;;5134120;27;20470;-63
2023/07/11 02:24:16;;;;;;;5.00;4.50;;;;;;;;;;5133739;27;20987;-63
2023/07/11 02:26:44;;;;;;;6.07;4.70;;;;;;;;;;5133556;27;20448;-63
2023/07/11 02:29:11;;;;;;;12.47;6.00;;;;;;;;;;5133912;27;20812;-63
2023/07/11 02:31:40;;;;;;;6.87;4.90;;;;;;;;;;5133519;27;20869;-62
2023/07/11 02:34:07;;;;;;;5.83;5.23;;;;;;;;;;5133968;27;20490;-64
2023/07/11 02:36:34;;;;;;;6.77;5.10;;;;;;;;;;5133568;27;20446;-63
2023/07/11 02:39:02;;;;;;;8.17;4.87;;;;;;;;;;5133594;27;20441;-63
2023/07/11 02:41:29;;;;;;;6.67;5.50;;;;;;;;;;5134061;27;20492;-63
2023/07/11 02:43:56;;;;;;;11.63;4.93;;;;;;;;;;5133514;27;20936;-63
2023/07/11 02:46:23;;;;;;;8.47;5.20;;;;;;;;;;5137419;27;20450;-64
2023/07/11 02:48:52;;;;;;;11.33;5.03;;;;;;;;;;5137325;27;21041;-63
2023/07/11 02:51:19;;;;;;;8.00;5.03;;;;;;;;;;5137495;27;20531;-64
2023/07/11 02:53:46;;;;;;;6.07;4.53;;;;;;;;;;5137253;27;20446;-64
2023/07/11 02:56:14;;;;;;;6.23;5.50;;;;;;;;;;5137058;27;20479;-63
2023/07/11 02:58:41;;;;;;;7.47;5.70;;;;;;;;;;5137639;27;20451;-64
2023/07/11 03:01:08;;;;;;;10.23;5.60;;;;;;;;;;5137786;27;20436;-63
2023/07/11 03:03:35;;;;;;;9.73;5.30;;;;;;;;;;5137624;27;20458;-64
2023/07/11 03:06:04;;;;;;;6.80;5.30;;;;;;;;;;5137430;27;20439;-64
2023/07/11 03:08:32;;;;;;;6.60;5.77;;;;;;;;;;5137272;27;20447;-63
2023/07/11 03:10:59;;;;;;;12.13;5.73;;;;;;;;;;5136837;27;20443;-65
2023/07/11 03:13:27;;;;;;;11.27;5.57;;;;;;;;;;5137192;27;20440;-65
2023/07/11 03:15:54;;;;;;;10.00;5.77;;;;;;;;;;5136938;27;20479;-64
2023/07/11 03:18:21;;;;;;;10.20;5.37;;;;;;;;;;5137088;27;20483;-64
2023/07/11 03:20:49;;;;;;;7.40;5.20;;;;;;;;;;5137482;27;20435;-63
2023/07/11 03:23:20;;;;;;;7.37;5.53;;;;;;;;;;5136658;27;20445;-63
2023/07/11 03:25:47;;;;;;;5.20;4.60;;;;;;;;;;5136830;27;20435;-64
2023/07/11 03:28:15;;;;;;;7.03;5.17;;;;;;;;;;5136656;27;20458;-64
2023/07/11 03:30:42;;;;;;;8.70;5.60;;;;;;;;;;5136487;27;20445;-63
2023/07/11 03:33:09;;;;;;;8.80;6.17;;;;;;;;;;5136685;27;20444;-63
2023/07/11 03:35:36;;;;;;;6.03;5.50;;;;;;;;;;5136625;27;20475;-64
2023/07/11 03:38:04;;;;;;;9.17;5.77;;;;;;;;;;5136587;27;20448;-63
2023/07/11 03:40:32;;;;;;;6.27;5.30;;;;;;;;;;5136625;27;20432;-63
2023/07/11 03:42:59;;;;;;;8.53;5.13;;;;;;;;;;5136546;27;20470;-63
2023/07/11 03:45:27;;;;;;;8.13;5.20;;;;;;;;;;5136571;27;20480;-63
2023/07/11 03:47:54;;;;;;;8.40;5.70;;;;;;;;;;5136421;27;20436;-63
2023/07/11 03:50:21;;;;;;;9.23;6.37;;;;;;;;;;5136131;27;20444;-64
2023/07/11 03:52:48;;;;;;;8.10;6.20;;;;;;;;;;5135737;27;20443;-64
2023/07/11 03:55:16;;;;;;;8.70;5.93;;;;;;;;;;5136016;27;20473;-63
2023/07/11 03:57:44;;;;;;;8.93;6.07;;;;;;;;;;5135308;27;20792;-64
2023/07/11 04:00:12;;;;;;;6.47;5.87;;;;;;;;;;5136199;27;20474;-64
2023/07/11 04:02:39;;;;;;;12.80;6.40;;;;;;;;;;5135779;27;20944;-63
2023/07/11 04:05:07;;;;;;;9.30;5.70;;;;;;;;;;5136120;27;20460;-63
2023/07/11 04:07:34;;;;;;;10.13;6.10;;;;;;;;;;5136037;27;20435;-63
2023/07/11 04:10:01;;;;;;;9.00;5.67;;;;;;;;;;5136043;27;20441;-63
2023/07/11 04:12:28;;;;;;;6.40;5.80;;;;;;;;;;5135655;27;20448;-63
2023/07/11 04:14:57;;;;;;;18.73;5.87;;;;;;;;;;5135966;27;20936;-63
2023/07/11 04:17:24;;;;;;;8.40;6.73;;;;;;;;;;5135136;27;20825;-63
2023/07/11 04:19:51;;;;;;;11.13;5.10;;;;;;;;;;5135500;27;20448;-63
2023/07/11 04:22:19;;;;;;;7.47;5.10;;;;;;;;;;5135725;27;20434;-63
2023/07/11 04:24:46;;;;;;;11.80;5.50;;;;;;;;;;5135479;27;20846;-61
2023/07/11 04:27:13;;;;;;;9.20;5.53;;;;;;;;;;5135580;27;20787;-63
2023/07/11 04:29:41;;;;;;;8.47;5.57;;;;;;;;;;5135668;27;20442;-62
2023/07/11 04:32:09;;;;;;;7.10;5.07;;;;;;;;;;5135522;27;20443;-62
2023/07/11 04:34:37;;;;;;;5.47;4.97;;;;;;;;;;5135584;27;20522;-62
2023/07/11 04:37:04;;;;;;;5.33;4.67;;;;;;;;;;5135349;27;20570;-63
2023/07/11 04:39:31;;;;;;;10.13;5.20;;;;;;;;;;5135454;27;20793;-63
2023/07/11 04:41:58;;;;;;;11.47;4.50;;;;;;;;;;5135277;27;20446;-62
2023/07/11 04:44:25;;;;;;;9.53;4.67;;;;;;;;;;5135188;27;20442;-62
2023/07/11 04:46:53;;;;;;;14.00;5.40;;;;;;;;;;5135190;27;20531;-63
2023/07/11 04:49:21;;;;;;;7.10;4.77;;;;;;;;;;5135319;27;20440;-61
2023/07/11 04:51:51;;;;;;;7.60;5.17;;;;;;;;;;5135132;27;20440;-63
2023/07/11 04:54:18;;;;;;;6.90;4.30;;;;;;;;;;5135157;27;20496;-62
2023/07/11 04:56:45;;;;;;;10.13;5.10;;;;;;;;;;5135078;27;20470;-63
2023/07/11 04:59:12;;;;;;;14.73;5.07;;;;;;;;;;5134789;27;20464;-62
2023/07/11 05:01:39;;;;;;;10.87;5.33;;;;;;;;;;5135243;27;20445;-63
2023/07/11 05:04:08;;;;;;;8.03;4.60;;;;;;;;;;5134847;27;20446;-62
2023/07/11 05:06:37;;;;;;;7.90;4.20;;;;;;;;;;5134797;27;20442;-63
2023/07/11 05:09:04;;;;;;;8.60;4.37;;;;;;;;;;5134529;27;20438;-61
2023/07/11 05:11:31;;;;;;;6.07;3.83;;;;;;;;;;5134797;27;20438;-61
2023/07/11 05:13:59;;;;;;;8.40;4.30;;;;;;;;;;5134418;27;20533;-62
2023/07/11 05:16:28;;;;;;;4.60;4.10;;;;;;;;;;5135290;27;20813;-63
2023/07/11 05:18:57;;;;;;;7.63;4.20;;;;;;;;;;5134947;27;20499;-61
2023/07/11 05:21:24;;;;;;;6.53;4.50;;;;;;;;;;5134711;27;20486;-62
2023/07/11 05:23:55;;;;;;;5.00;4.57;;;;;;;;;;5134531;27;20442;-62
2023/07/11 05:26:22;;;;;;;6.60;4.43;;;;;;;;;;5134735;27;20422;-62
2023/07/11 05:28:49;;;;;;;6.50;4.90;;;;;;;;;;5134546;27;20454;-63
2023/07/11 05:31:17;;;;;;;5.63;5.00;;;;;;;;;;5134503;27;20442;-64
2023/07/11 05:33:44;;;;;;;10.17;4.93;;;;;;;;;;5133914;27;20994;-63
2023/07/11 05:36:20;;;;;;;12.13;4.80;;;;;;;;;;5134467;27;20505;-63
2023/07/11 05:38:48;;;;;;;10.50;4.73;;;;;;;;;;5134182;27;20428;-62
2023/07/11 05:41:16;;;;;;;6.97;4.30;;;;;;;;;;5134426;27;20517;-62
2023/07/11 05:43:44;;;;;;;9.33;4.87;;;;;;;;;;5134028;27;20992;-62
2023/07/11 05:46:11;;;;;;;5.60;4.47;;;;;;;;;;5134491;27;20452;-62
2023/07/11 05:48:38;;;;;;;6.67;4.57;;;;;;;;;;5134597;28;20521;-62
2023/07/11 05:51:06;;;;;;;7.30;4.87;;;;;;;;;;5134846;28;20547;-62
2023/07/11 05:53:34;;;;;;;19.37;14.70;;;;;;;;;;5134420;28;20443;-62
2023/07/11 05:56:01;;;;;;;6.37;4.40;;;;;;;;;;5134309;28;20895;-62
2023/07/11 05:58:31;;;;;;;4.93;3.67;;;;;;;;;;5134430;28;20462;-63
2023/07/11 06:00:58;;;;;;;6.70;4.83;;;;;;;;;;5134451;28;20472;-62
2023/07/11 06:03:26;;;;;;;5.30;4.03;;;;;;;;;;5134179;28;20798;-63
2023/07/11 06:05:54;;;;;;;9.30;4.40;;;;;;;;;;5134074;28;20445;-62
2023/07/11 06:08:21;;;;;;;7.07;4.43;;;;;;;;;;5134217;28;20464;-63
2023/07/11 06:10:49;;;;;;;7.70;4.67;;;;;;;;;;5133952;28;21043;-62
2023/07/11 06:13:17;;;;;;;7.80;4.70;;;;;;;;;;5134309;28;20460;-63
2023/07/11 06:15:45;;;;;;;5.27;4.37;;;;;;;;;;5134388;28;20481;-62
2023/07/11 06:18:13;;;;;;;6.00;4.60;;;;;;;;;;5134010;28;20446;-63
2023/07/11 06:20:40;;;;;;;5.73;4.17;;;;;;;;;;5136810;27;20789;-62
2023/07/11 06:23:07;;;;;;;7.53;4.30;;;;;;;;;;5137810;27;20941;-62
2023/07/11 06:25:34;;;;;;;9.00;4.40;;;;;;;;;;5137957;27;20441;-62
2023/07/11 06:28:01;;;;;;;5.13;4.63;;;;;;;;;;5138254;27;20429;-62
2023/07/11 06:30:28;;;;;;;6.03;4.70;;;;;;;;;;5138129;27;20439;-62
2023/07/11 06:32:58;;;;;;;14.87;5.10;;;;;;;;;;5138048;27;20934;-62
2023/07/11 06:35:25;;;;;;;6.10;4.50;;;;;;;;;;5137953;27;20435;-62
2023/07/11 06:37:52;;;;;;;7.00;3.50;;;;;;;;;;5137580;27;20482;-63
2023/07/11 06:40:20;;;;;;;7.40;4.30;;;;;;;;;;5137325;27;20445;-63
2023/07/11 06:42:47;;;;;;;3.90;3.50;;;;;;;;;;5137769;27;20444;-62
2023/07/11 06:45:16;;;;;;;8.90;4.20;;;;;;;;;;5137829;27;20863;-61
2023/07/11 06:47:43;;;;;;;8.03;4.20;;;;;;;;;;5137318;27;20438;-62
2023/07/11 06:50:12;;;;;;;6.07;3.80;;;;;;;;;;5137481;27;20473;-62
2023/07/11 06:52:39;;;;;;;8.20;4.23;;;;;;;;;;5137177;27;20438;-62
2023/07/11 06:55:07;;;;;;;5.27;4.20;;;;;;;;;;5137061;27;20439;-62
2023/07/11 06:57:35;;;;;;;4.63;4.17;;;;;;;;;;5137382;27;20806;-62
2023/07/11 07:00:02;;;;;;;6.60;4.07;;;;;;;;;;5137425;27;20466;-62
2023/07/11 07:02:29;;;;;;;5.80;4.37;;;;;;;;;;5137359;27;20437;-62
2023/07/11 07:04:56;;;;;;;4.23;3.80;;;;;;;;;;5137180;27;20436;-62
2023/07/11 07:07:25;;;;;;;5.10;3.63;;;;;;;;;;5137566;27;20467;-62
2023/07/11 07:09:52;;;;;;;6.80;4.97;;;;;;;;;;5137100;27;20443;-62
2023/07/11 07:12:19;;;;;;;4.97;3.90;;;;;;;;;;5136807;27;20436;-62
2023/07/11 07:14:47;;;;;;;4.77;3.77;;;;;;;;;;5136699;27;20445;-62
2023/07/11 07:17:14;;;;;;;5.80;3.53;;;;;;;;;;5136858;27;20477;-62
2023/07/11 07:19:41;;;;;;;4.60;3.90;;;;;;;;;;5136835;27;20441;-61
2023/07/11 07:22:08;;;;;;;3.63;3.10;;;;;;;;;;5137033;27;20440;-62
2023/07/11 07:24:37;;;;;;;6.20;3.47;;;;;;;;;;5136791;27;20456;-62
2023/07/11 07:27:04;;;;;;;3.90;3.30;;;;;;;;;;5136521;27;20518;-62
2023/07/11 07:29:31;;;;;;;4.00;3.53;;;;;;;;;;5136765;27;20452;-62
2023/07/11 07:31:59;;;;;;;5.80;3.53;;;;;;;;;;5136394;27;20878;-62
2023/07/11 07:34:26;;;;;;;5.10;4.33;;;;;;;;;;5136832;27;20524;-63
2023/07/11 07:36:53;;;;;;;6.13;3.27;;;;;;;;;;5136651;27;20477;-62
2023/07/11 07:39:20;;;;;;;5.80;3.87;;;;;;;;;;5136245;27;20445;-62
2023/07/11 07:41:49;;;;;;;7.50;3.60;;;;;;;;;;5136917;27;20441;-61
2023/07/11 07:44:16;;;;;;;4.80;3.37;;;;;;;;;;5136565;27;20440;-63
2023/07/11 07:46:43;;;;;;;5.23;3.53;;;;;;;;;;5137159;27;20495;-62
2023/07/11 07:49:10;;;;;;;4.60;3.33;;;;;;;;;;5136388;27;20528;-62
2023/07/11 07:51:37;;;;;;;4.20;3.23;;;;;;;;;;5135987;27;20469;-62
2023/07/11 07:54:05;;;;;;;12.80;3.73;;;;;;;;;;5136530;27;20477;-62
2023/07/11 07:56:34;;;;;;;8.90;3.90;;;;;;;;;;5136089;27;20473;-63
2023/07/11 07:59:03;;;;;;;6.83;3.70;;;;;;;;;;5135894;27;20474;-62
2023/07/11 08:01:32;;;;;;;3.57;2.83;;;;;;;;;;5136030;27;20455;-62
2023/07/11 08:03:59;;;;;;;6.43;3.67;;;;;;;;;;5135869;27;20426;-62
2023/07/11 08:06:26;;;;;;;5.00;3.40;;;;;;;;;;5135674;27;20457;-63
2023/07/11 08:08:53;;;;;;;4.37;3.70;;;;;;;;;;5135743;27;20919;-62
2023/07/11 08:11:22;;;;;;;4.03;3.47;;;;;;;;;;5135973;27;20447;-62
2023/07/11 08:13:49;;;;;;;4.00;3.60;;;;;;;;;;5135981;27;20436;-63
2023/07/11 08:16:19;;;;;;;6.93;3.70;;;;;;;;;;5135761;27;20444;-62
2023/07/11 08:18:46;;;;;;;4.93;3.50;;;;;;;;;;5135999;27;20922;-62
2023/07/11 08:21:13;;;;;;;6.27;3.80;;;;;;;;;;5135726;27;20440;-62
2023/07/11 08:23:41;;;;;;;4.20;3.30;;;;;;;;;;5135472;27;20998;-62
2023/07/11 08:26:09;;;;;;;3.80;3.30;;;;;;;;;;5135663;27;20472;-62
2023/07/11 08:28:36;;;;;;;5.00;3.63;;;;;;;;;;5135681;27;20455;-62
2023/07/11 08:31:04;;;;;;;5.27;3.70;;;;;;;;;;5134927;27;20936;-63
2023/07/11 08:33:33;;;;;;;4.87;2.93;;;;;;;;;;5135385;27;20792;-62
2023/07/11 08:36:00;;;;;;;7.43;3.60;;;;;;;;;;5134881;27;20451;-62
2023/07/11 08:38:27;;;;;;;4.07;3.40;;;;;;;;;;5135061;27;20478;-62
2023/07/11 08:40:55;;;;;;;4.80;3.10;;;;;;;;;;5134884;27;20444;-63
2023/07/11 08:43:25;;;;;;;6.73;4.07;;;;;;;;;;5134673;27;20428;-62
2023/07/11 08:45:54;;;;;;;5.27;3.57;;;;;;;;;;5135373;27;20446;-62
2023/07/11 08:48:24;;;;;;;4.40;3.60;;;;;;;;;;5135302;27;20768;-62
2023/07/11 08:50:56;;;;;;;4.90;3.40;;;;;;;;;;5135165;27;20476;-62
2023/07/11 08:53:28;;;;;;;5.20;3.77;;;;;;;;;;5135501;27;20435;-63
2023/07/11 08:56:05;;;;;;;4.03;3.03;;;;;;;;;;5135087;27;20437;-62
2023/07/11 08:58:34;;;;;;;5.10;2.97;;;;;;;;;;5135058;27;20487;-62
2023/07/11 09:01:03;;;;;;;4.93;3.43;;;;;;;;;;5134953;27;20441;-62
2023/07/11 09:03:33;;;;;;;4.63;3.00;;;;;;;;;;5134598;27;21003;-62
2023/07/11 09:06:04;;;;;;;5.47;3.50;;;;;;;;;;5134678;27;20453;-62
2023/07/11 09:08:32;;;;;;;3.03;2.63;;;;;;;;;;5134783;27;20511;-62
2023/07/11 09:11:02;;;;;;;3.17;2.97;;;;;;;;;;5134996;27;20444;-62
2023/07/11 09:13:47;;;;;;;3.17;2.83;;;;;;;;;;5134947;27;20712;-62
2023/07/11 09:16:19;;;;;;;5.07;2.90;;;;;;;;;;5134597;27;20429;-63
2023/07/11 09:18:50;;;;;;;6.53;3.30;;;;;;;;;;5134954;27;20609;-63
2023/07/11 09:21:22;;;;;;;5.63;3.60;;;;;;;;;;5134645;27;20464;-62
2023/07/11 09:23:54;;;;;;;3.70;3.20;;;;;;;;;;5134518;27;20487;-63
2023/07/11 09:26:26;;;;;;;4.70;3.20;;;;;;;;;;5134666;27;20433;-63
2023/07/11 09:28:55;;;;;;;4.07;2.60;;;;;;;;;;5134914;27;20471;-63
2023/07/11 09:31:23;;;;;;;3.03;2.73;;;;;;;;;;5134407;27;20540;-63
2023/07/11 09:33:53;;;;;;;5.10;3.07;;;;;;;;;;5134232;27;20994;-62
2023/07/11 09:36:23;;;;;;;5.90;3.40;;;;;;;;;;5135066;27;20427;-62
2023/07/11 09:38:51;;;;;;;5.00;3.00;;;;;;;;;;5134251;27;20541;-62
2023/07/11 09:41:21;;;;;;;2.57;2.37;;;;;;;;;;5134475;27;20452;-63
2023/07/11 09:43:48;;;;;;;4.80;3.00;;;;;;;;;;5134368;27;20510;-62
2023/07/11 09:46:16;;;;;;;4.60;2.97;;;;;;;;;;5134298;27;20441;-62
2023/07/11 09:48:45;;;;;;;7.47;3.30;;;;;;;;;;5134323;28;20450;-61
2023/07/11 09:51:19;;;;;;;3.70;2.93;;;;;;;;;;5133904;28;20445;-62
2023/07/11 09:53:48;;;;;;;4.87;2.90;;;;;;;;;;5133936;27;20416;-62
2023/07/11 09:56:17;;;;;;;4.93;3.07;;;;;;;;;;5137740;27;20613;-62
2023/07/11 09:58:47;;;;;;;4.40;3.10;;;;;;;;;;5137916;27;20962;-63
2023/07/11 10:01:17;;;;;;;3.40;2.50;;;;;;;;;;5138189;27;20408;-63
2023/07/11 10:03:47;;;;;;;4.50;3.07;;;;;;;;;;5139041;27;20459;-63
2023/07/11 10:06:19;;;;;;;5.03;3.33;;;;;;;;;;5138056;27;20425;-62
2023/07/11 10:08:49;;;;;;;4.80;3.30;;;;;;;;;;5138724;27;20425;-62
2023/07/11 10:11:16;;;;;;;6.93;3.60;;;;;;;;;;5138581;27;20791;-63
2023/07/11 10:13:46;;;;;;;3.43;2.70;;;;;;;;;;5137962;27;20957;-63
2023/07/11 10:16:17;;;;;;;10.13;3.10;;;;;;;;;;5137917;27;20515;-62
2023/07/11 10:18:45;;;;;;;2.80;2.50;;;;;;;;;;5137772;27;20498;-62
2023/07/11 10:21:14;;;;;;;3.10;2.70;;;;;;;;;;5137807;27;20512;-62
2023/07/11 10:23:43;;;;;;;3.53;2.80;;;;;;;;;;5137687;27;20904;-62
2023/07/11 10:26:20;;;;;;;6.10;2.83;;;;;;;;;;5138303;27;20528;-62
2023/07/11 10:28:50;;;;;;;10.20;3.50;;;;;;;;;;5138018;27;20776;-62
2023/07/11 10:31:20;;;;;;;3.73;2.87;;;;;;;;;;5137645;27;20455;-62
2023/07/11 10:33:50;;;;;;;4.73;2.90;;;;;;;;;;5137785;27;20445;-62
2023/07/11 10:36:20;;;;;;;6.33;3.53;;;;;;;;;;5138139;27;20434;-62
2023/07/11 10:38:50;;;;;;;6.80;3.17;;;;;;;;;;5137319;27;20457;-62
2023/07/11 10:41:20;;;;;;;8.90;2.80;;;;;;;;;;5137669;27;20408;-62
2023/07/11 10:43:49;;;;;;;4.80;2.83;;;;;;;;;;5137210;27;20449;-61
2023/07/11 10:46:20;;;;;;;5.57;2.87;;;;;;;;;;5137759;27;20422;-61
2023/07/11 10:48:49;;;;;;;4.20;2.93;;;;;;;;;;5137287;27;20976;-62
2023/07/11 10:51:19;;;;;;;5.57;3.00;;;;;;;;;;5137291;27;20419;-62
2023/07/11 10:53:49;;;;;;;5.63;2.80;;;;;;;;;;5137155;27;20408;-63
2023/07/11 10:56:19;;;;;;;10.03;3.30;;;;;;;;;;5137087;27;20451;-62
2023/07/11 10:58:48;;;;;;;5.60;3.20;;;;;;;;;;5137263;27;20471;-62
2023/07/11 11:01:20;;;;;;;6.57;3.13;;;;;;;;;;5138122;27;20411;-63
2023/07/11 11:03:48;;;;;;;3.73;3.40;;;;;;;;;;5137459;27;20493;-63
2023/07/11 11:06:38;;;;;;;3.70;3.30;;;;;;;;;;5137186;27;20405;-63
2023/07/11 11:09:10;;;;;;;9.10;3.13;;;;;;;;;;5137218;27;20411;-63
2023/07/11 11:11:42;;;;;;;5.80;3.40;;;;;;;;;;5137013;27;20941;-63
2023/07/11 11:14:15;;;;;;;5.93;3.30;;;;;;;;;;5137141;27;20410;-63
2023/07/11 11:16:47;;;;;;;7.00;3.40;;;;;;;;;;5136821;27;20494;-63
2023/07/11 11:19:19;;;;;;;7.73;3.70;;;;;;;;;;5136879;27;20495;-63
2023/07/11 11:21:52;;;;;;;4.90;3.87;;;;;;;;;;5137466;27;20430;-63
2023/07/11 11:24:27;;;;;;;4.00;3.27;;;;;;;;;;5137012;27;20401;-63
2023/07/11 11:27:00;;;;;;;5.57;2.93;;;;;;;;;;5136786;27;20407;-62
2023/07/11 11:29:36;;;;;;;4.27;3.00;;;;;;;;;;5136430;27;20453;-66
2023/07/11 11:32:08;;;;;;;6.37;3.13;;;;;;;;;;5136867;27;20427;-66
2023/07/11 11:34:43;;;;;;;8.20;4.83;;;;;;;;;;5136419;27;20428;-67
2023/07/11 11:37:17;;;;;;;6.50;3.30;;;;;;;;;;5136384;27;20914;-67
2023/07/11 11:39:46;;;;;;;7.20;3.70;;;;;;;;;;5136325;27;20491;-66
2023/07/11 11:42:16;;;;;;;7.77;3.20;;;;;;;;;;5136728;27;20809;-66
2023/07/11 11:44:47;;;;;;;5.97;3.20;;;;;;;;;;5136508;27;20440;-65
2023/07/11 11:47:15;;;;;;;3.93;3.37;;;;;;;;;;5136622;27;20734;-66
2023/07/11 11:49:43;;;;;;;4.90;3.07;;;;;;;;;;5135185;27;20427;-66
2023/07/11 11:52:10;;;;;;;8.33;3.47;;;;;;;;;;5135828;27;20767;-66
2023/07/11 11:54:38;;;;;;;10.50;3.10;;;;;;;;;;5135886;27;20430;-66
2023/07/11 11:57:06;;;;;;;5.40;2.67;;;;;;;;;;5136236;27;20412;-66
2023/07/11 11:59:33;;;;;;;4.67;3.13;;;;;;;;;;5135831;27;20492;-66
2023/07/11 12:02:04;;;;;;;9.40;3.60;;;;;;;;;;5135866;27;20911;-66
2023/07/11 12:05:01;;;;;;;5.40;3.40;;;;;;;;;;5136022;27;20441;-66
2023/07/11 12:07:29;;;;;;;4.97;2.93;;;;;;;;;;5136128;27;20755;-66
2023/07/11 12:10:12;;;;;;;5.43;3.37;;;;;;;;;;5135848;27;20491;-66
2023/07/11 12:12:56;;;;;;;4.00;3.53;;;;;;;;;;5135883;27;20741;-66
2023/07/11 12:15:25;;;;;;;8.30;3.60;;;;;;;;;;5135622;27;20417;-66
2023/07/11 12:17:54;;;;;;;3.77;3.40;;;;;;;;;;5134777;27;20475;-65
2023/07/11 12:20:23;;;;;;;6.33;3.40;;;;;;;;;;5135190;27;20420;-65
2023/07/11 12:23:09;;;;;;;3.73;3.07;;;;;;;;;;5135250;27;20895;-66
2023/07/11 12:25:36;;;;;;;4.50;3.47;;;;;;;;;;5135559;27;20416;-66
2023/07/11 12:28:03;;;;;;;5.43;3.80;;;;;;;;;;5135504;27;20455;-66
2023/07/11 12:30:38;;;;;;;6.97;3.70;;;;;;;;;;5135351;27;20835;-66
2023/07/11 12:33:20;;;;;;;6.67;3.80;;;;;;;;;;5135032;27;20452;-66
2023/07/11 12:35:50;;;;;;;5.60;3.90;;;;;;;;;;5118112;27;20452;-66
2023/07/11 12:38:21;;;;;;;8.07;3.67;;;;;;;;;;5134846;27;20473;-66
2023/07/11 12:40:53;;;;;;;7.67;4.00;;;;;;;;;;5134852;27;20517;-66
2023/07/11 12:43:22;;;;;;;4.73;3.50;;;;;;;;;;5135561;27;20441;-66
2023/07/11 12:45:50;;;;;;;5.70;3.30;;;;;;;;;;5135033;27;20452;-66
2023/07/11 12:48:19;;;;;;;5.30;3.63;;;;;;;;;;5135116;27;20437;-66
2023/07/11 12:50:47;;;;;;;4.67;3.13;;;;;;;;;;5134595;27;20445;-66
2023/07/11 12:53:16;;;;;;;10.47;4.53;;;;;;;;;;5134554;27;20441;-66
2023/07/11 12:55:43;;;;;;;4.97;3.80;;;;;;;;;;5134473;27;20472;-65
2023/07/11 12:58:16;;;;;;;6.43;3.33;;;;;;;;;;5134466;27;21032;-65
2023/07/11 13:00:44;;;;;;;5.37;3.77;;;;;;;;;;5134948;27;20444;-65
2023/07/11 13:03:22;;;;;;;5.30;3.83;;;;;;;;;;5134502;27;20448;-65
2023/07/11 13:05:50;;;;;;;7.10;3.67;;;;;;;;;;5134553;27;20433;-66
2023/07/11 13:08:19;;;;;;;5.37;3.20;;;;;;;;;;5135289;27;20473;-66
2023/07/11 13:10:50;;;;;;;8.50;3.43;;;;;;;;;;5134815;27;20454;-66
2023/07/11 13:13:17;;;;;;;7.23;3.50;;;;;;;;;;5135115;27;20451;-66
2023/07/11 13:15:45;;;;;;;4.33;2.90;;;;;;;;;;5134644;27;20441;-66
2023/07/11 13:18:26;;;;;;;5.13;3.17;;;;;;;;;;5134638;27;20566;-66
2023/07/11 13:20:53;;;;;;;8.20;3.20;;;;;;;;;;5134165;27;20438;-67
2023/07/11 13:23:22;;;;;;;5.27;3.17;;;;;;;;;;5134034;27;20942;-66
2023/07/11 13:25:50;;;;;;;4.57;2.90;;;;;;;;;;5133966;27;20447;-66
2023/07/11 13:28:18;;;;;;;3.37;2.83;;;;;;;;;;5133731;27;20967;-66
2023/07/11 13:30:45;;;;;;;5.70;3.50;;;;;;;;;;5134301;27;20446;-66
2023/07/11 13:33:15;;;;;;;4.00;2.87;;;;;;;;;;5134430;27;20442;-65
2023/07/11 13:35:51;;;;;;;4.37;2.80;;;;;;;;;;5134502;27;20430;-65
2023/07/11 13:38:18;;;;;;;4.93;2.90;;;;;;;;;;5134498;27;20507;-65
2023/07/11 13:40:47;;;;;;;5.80;3.00;;;;;;;;;;5133716;27;20453;-66
2023/07/11 13:43:18;;;;;;;4.90;3.50;;;;;;;;;;5134009;27;20442;-72
2023/07/11 13:45:46;;;;;;;4.20;3.10;;;;;;;;;;5134027;27;20517;-66
2023/07/11 13:48:19;;;;;;;5.20;3.20;;;;;;;;;;5133767;27;20477;-69
2023/07/11 13:50:46;;;;;;;8.50;2.90;;;;;;;;;;5133537;27;20426;-65
2023/07/11 13:53:15;;;;;;;5.67;3.20;;;;;;;;;;5134418;28;20449;-65
2023/07/11 13:55:45;;;;;;;4.50;3.43;;;;;;;;;;5133800;28;20447;-65
2023/07/11 13:58:13;;;;;;;7.40;3.27;;;;;;;;;;5133743;28;20477;-66
2023/07/11 14:00:44;;;;;;;4.87;3.03;;;;;;;;;;5133472;28;20469;-65
2023/07/11 14:03:15;;;;;;;5.33;3.57;;;;;;;;;;5133806;28;20437;-65
2023/07/11 14:05:46;;;;;;;8.40;3.30;;;;;;;;;;5134029;28;20428;-65
2023/07/11 14:08:13;;;;;;;3.87;3.50;;;;;;;;;;5133984;28;20498;-64
2023/07/11 14:10:41;;;;;;;5.10;3.43;;;;;;;;;;5133768;28;20437;-65
2023/07/11 14:13:13;;;;;;;6.20;3.73;;;;;;;;;;5133460;28;20453;-65
2023/07/11 14:15:41;;;;;;;6.90;4.37;;;;;;;;;;5133852;28;20477;-65
2023/07/11 14:18:10;;;;;;;9.40;3.13;;;;;;;;;;5133431;28;20484;-65
2023/07/11 14:20:39;;;;;;;5.67;3.90;;;;;;;;;;5133894;28;20484;-65
2023/07/11 14:23:11;;;;;;;5.40;3.93;;;;;;;;;;5133755;28;20529;-65
2023/07/11 14:25:38;;;;;;;5.30;3.70;;;;;;;;;;5133988;28;20432;-65
2023/07/11 14:28:06;;;;;;;4.70;3.83;;;;;;;;;;5133916;28;20428;-65
2023/07/11 14:30:33;;;;;;;6.60;3.83;;;;;;;;;;5133495;28;20427;-65
2023/07/11 14:33:02;;;;;;;8.67;3.47;;;;;;;;;;5133388;28;20451;-66
2023/07/11 14:35:29;;;;;;;4.57;4.10;;;;;;;;;;5133902;28;20470;-66
2023/07/11 14:37:57;;;;;;;4.83;3.40;;;;;;;;;;5133621;28;20458;-65
2023/07/11 14:40:26;;;;;;;8.73;3.90;;;;;;;;;;5133948;27;21057;-65
2023/07/11 14:42:53;;;;;;;5.90;3.67;;;;;;;;;;5137186;27;20938;-66
2023/07/11 14:45:21;;;;;;;7.27;4.10;;;;;;;;;;5137018;27;20433;-65
2023/07/11 14:47:49;;;;;;;4.57;3.90;;;;;;;;;;5137108;27;20451;-64
2023/07/11 14:50:19;;;;;;;4.03;3.63;;;;;;;;;;5136993;27;20458;-65